Terminal Aerodrome Forecast
Issued by NWS Charleston, WV

Current Version | Previous Version | Text Only | Print | Product List | Glossary Off
Versions: 1 2 3 4 5 6 7 8 9 10 11 12 13 14 15 16 17 18 19 20 21 22 23

000
FTUS41 KRLX 240236 AAA
TAFBKW
TAF AMD
KBKW 240236Z 2403/2424 36004KT P6SM BKN050
     FM240500 VRB02KT P6SM FEW080
     FM241400 26004KT P6SM SCT050=

USA.gov is the U.S. government's official web portal to all federal, state and local government web resources and services.